sensor_id;sensor_type;location;lat;lon;timestamp;pressure;altitude;pressure_sealevel;temperature;humidity
62946;BME280;52164;52.212;-1.010;2023-02-19T00:01:17;101166.35;;;8.75;75.37
62946;BME280;52164;52.212;-1.010;2023-02-19T00:03:46;101171.02;;;8.78;75.24
62946;BME280;52164;52.212;-1.010;2023-02-19T00:06:12;101177.66;;;8.80;75.22
62946;BME280;52164;52.212;-1.010;2023-02-19T00:08:37;101179.30;;;8.84;75.03
62946;BME280;52164;52.212;-1.010;2023-02-19T00:11:05;101176.66;;;8.85;74.91
62946;BME280;52164;52.212;-1.010;2023-02-19T00:13:34;101178.29;;;8.86;74.69
62946;BME280;52164;52.212;-1.010;2023-02-19T00:16:03;101180.76;;;8.85;74.43
62946;BME280;52164;52.212;-1.010;2023-02-19T00:18:29;101176.47;;;8.84;74.47
62946;BME280;52164;52.212;-1.010;2023-02-19T00:20:54;101181.42;;;8.82;74.68
62946;BME280;52164;52.212;-1.010;2023-02-19T00:23:20;101185.13;;;8.80;74.19
62946;BME280;52164;52.212;-1.010;2023-02-19T00:25:46;101190.23;;;8.77;74.22
62946;BME280;52164;52.212;-1.010;2023-02-19T00:28:11;101197.13;;;8.74;74.22
62946;BME280;52164;52.212;-1.010;2023-02-19T00:30:36;101204.90;;;8.72;74.25
62946;BME280;52164;52.212;-1.010;2023-02-19T00:33:01;101210.36;;;8.68;74.20
62946;BME280;52164;52.212;-1.010;2023-02-19T00:35:27;101208.35;;;8.65;74.16
62946;BME280;52164;52.212;-1.010;2023-02-19T00:37:52;101214.88;;;8.62;74.10
62946;BME280;52164;52.212;-1.010;2023-02-19T00:40:17;101222.80;;;8.58;73.98
62946;BME280;52164;52.212;-1.010;2023-02-19T00:42:43;101221.86;;;8.56;73.93
62946;BME280;52164;52.212;-1.010;2023-02-19T00:45:08;101223.94;;;8.53;74.18
62946;BME280;52164;52.212;-1.010;2023-02-19T00:47:34;101226.73;;;8.50;73.88
62946;BME280;52164;52.212;-1.010;2023-02-19T00:49:59;101227.23;;;8.48;73.96
62946;BME280;52164;52.212;-1.010;2023-02-19T00:52:24;101229.13;;;8.45;73.95
62946;BME280;52164;52.212;-1.010;2023-02-19T00:54:50;101233.02;;;8.45;73.86
62946;BME280;52164;52.212;-1.010;2023-02-19T00:57:15;101234.60;;;8.44;73.93
62946;BME280;52164;52.212;-1.010;2023-02-19T00:59:40;101237.79;;;8.43;73.91
62946;BME280;52164;52.212;-1.010;2023-02-19T01:02:06;101237.77;;;8.43;74.14
62946;BME280;52164;52.212;-1.010;2023-02-19T01:04:31;101243.28;;;8.43;73.76
62946;BME280;52164;52.212;-1.010;2023-02-19T01:06:56;101248.44;;;8.43;73.70
62946;BME280;52164;52.212;-1.010;2023-02-19T01:09:21;101251.95;;;8.41;73.83
62946;BME280;52164;52.212;-1.010;2023-02-19T01:11:47;101250.16;;;8.40;73.91
62946;BME280;52164;52.212;-1.010;2023-02-19T01:14:12;101257.46;;;8.40;74.05
62946;BME280;52164;52.212;-1.010;2023-02-19T01:16:37;101264.58;;;8.41;73.90
62946;BME280;52164;52.212;-1.010;2023-02-19T01:19:03;101262.81;;;8.41;73.68
62946;BME280;52164;52.212;-1.010;2023-02-19T01:21:29;101269.19;;;8.40;73.57
62946;BME280;52164;52.212;-1.010;2023-02-19T01:23:55;101265.80;;;8.39;73.52
62946;BME280;52164;52.212;-1.010;2023-02-19T01:26:26;101270.08;;;8.40;73.54
62946;BME280;52164;52.212;-1.010;2023-02-19T01:28:51;101266.54;;;8.41;73.56
62946;BME280;52164;52.212;-1.010;2023-02-19T01:31:18;101269.22;;;8.41;73.34
62946;BME280;52164;52.212;-1.010;2023-02-19T01:33:44;101269.75;;;8.41;73.62
62946;BME280;52164;52.212;-1.010;2023-02-19T01:36:10;101268.52;;;8.42;73.54
62946;BME280;52164;52.212;-1.010;2023-02-19T01:38:35;101261.59;;;8.42;73.53
62946;BME280;52164;52.212;-1.010;2023-02-19T01:41:02;101262.67;;;8.43;73.73
62946;BME280;52164;52.212;-1.010;2023-02-19T01:43:28;101258.25;;;8.44;73.48
62946;BME280;52164;52.212;-1.010;2023-02-19T01:45:53;101260.03;;;8.44;73.52
62946;BME280;52164;52.212;-1.010;2023-02-19T01:48:24;101259.63;;;8.42;73.39
62946;BME280;52164;52.212;-1.010;2023-02-19T01:50:53;101265.82;;;8.40;73.17
62946;BME280;52164;52.212;-1.010;2023-02-19T01:53:21;101262.37;;;8.37;73.37
62946;BME280;52164;52.212;-1.010;2023-02-19T01:55:49;101267.97;;;8.33;73.33
62946;BME280;52164;52.212;-1.010;2023-02-19T01:58:15;101270.02;;;8.29;73.44
62946;BME280;52164;52.212;-1.010;2023-02-19T02:00:41;101273.33;;;8.25;73.40
62946;BME280;52164;52.212;-1.010;2023-02-19T02:03:06;101274.00;;;8.23;73.54
62946;BME280;52164;52.212;-1.010;2023-02-19T02:05:39;101275.04;;;8.22;73.55
62946;BME280;52164;52.212;-1.010;2023-02-19T02:08:06;101287.09;;;8.21;73.48
62946;BME280;52164;52.212;-1.010;2023-02-19T02:10:51;101286.90;;;8.20;73.71
62946;BME280;52164;52.212;-1.010;2023-02-19T02:13:17;101294.91;;;8.20;73.75
62946;BME280;52164;52.212;-1.010;2023-02-19T02:15:50;101298.16;;;8.22;73.76
62946;BME280;52164;52.212;-1.010;2023-02-19T02:18:21;101301.38;;;8.23;73.82
62946;BME280;52164;52.212;-1.010;2023-02-19T02:20:57;101307.58;;;8.22;73.91
62946;BME280;52164;52.212;-1.010;2023-02-19T02:26:12;101324.87;;;8.17;73.80
62946;BME280;52164;52.212;-1.010;2023-02-19T02:31:42;101323.38;;;8.13;73.50
62946;BME280;52164;52.212;-1.010;2023-02-19T02:36:42;101328.21;;;8.15;73.77
62946;BME280;52164;52.212;-1.010;2023-02-19T02:39:10;101331.61;;;8.16;74.01
62946;BME280;52164;52.212;-1.010;2023-02-19T02:41:41;101335.22;;;8.18;73.59
62946;BME280;52164;52.212;-1.010;2023-02-19T02:44:06;101338.67;;;8.21;73.89
62946;BME280;52164;52.212;-1.010;2023-02-19T02:46:33;101334.45;;;8.24;73.88
62946;BME280;52164;52.212;-1.010;2023-02-19T02:49:02;101337.54;;;8.25;73.94
62946;BME280;52164;52.212;-1.010;2023-02-19T02:51:29;101332.04;;;8.26;73.82
62946;BME280;52164;52.212;-1.010;2023-02-19T02:53:57;101331.72;;;8.28;73.87
62946;BME280;52164;52.212;-1.010;2023-02-19T02:56:46;101335.11;;;8.29;73.82
62946;BME280;52164;52.212;-1.010;2023-02-19T02:59:15;101345.80;;;8.29;73.66
62946;BME280;52164;52.212;-1.010;2023-02-19T03:01:44;101348.83;;;8.29;73.50
62946;BME280;52164;52.212;-1.010;2023-02-19T03:06:56;101351.99;;;8.28;73.53
62946;BME280;52164;52.212;-1.010;2023-02-19T03:09:29;101360.17;;;8.28;73.53
62946;BME280;52164;52.212;-1.010;2023-02-19T03:11:56;101364.27;;;8.28;73.62
62946;BME280;52164;52.212;-1.010;2023-02-19T03:14:44;101373.17;;;8.29;73.74
62946;BME280;52164;52.212;-1.010;2023-02-19T03:17:36;101373.74;;;8.31;73.65
62946;BME280;52164;52.212;-1.010;2023-02-19T03:20:22;101369.72;;;8.33;73.94
62946;BME280;52164;52.212;-1.010;2023-02-19T03:22:48;101370.11;;;8.35;73.87
62946;BME280;52164;52.212;-1.010;2023-02-19T03:28:00;101385.04;;;8.35;73.58
62946;BME280;52164;52.212;-1.010;2023-02-19T03:30:28;101379.17;;;8.35;73.55
62946;BME280;52164;52.212;-1.010;2023-02-19T03:33:03;101383.64;;;8.35;73.69
62946;BME280;52164;52.212;-1.010;2023-02-19T03:35:34;101385.05;;;8.35;73.48
62946;BME280;52164;52.212;-1.010;2023-02-19T03:38:02;101387.69;;;8.34;73.53
62946;BME280;52164;52.212;-1.010;2023-02-19T03:40:29;101388.56;;;8.33;73.48
62946;BME280;52164;52.212;-1.010;2023-02-19T03:45:26;101388.86;;;8.31;73.44
62946;BME280;52164;52.212;-1.010;2023-02-19T03:48:15;101389.57;;;8.31;73.42
62946;BME280;52164;52.212;-1.010;2023-02-19T03:50:43;101396.66;;;8.30;73.76
62946;BME280;52164;52.212;-1.010;2023-02-19T03:53:14;101402.54;;;8.30;73.56
62946;BME280;52164;52.212;-1.010;2023-02-19T03:55:46;101404.30;;;8.29;73.40
62946;BME280;52164;52.212;-1.010;2023-02-19T03:58:17;101401.60;;;8.27;73.42
62946;BME280;52164;52.212;-1.010;2023-02-19T04:00:52;101399.27;;;8.26;73.38
62946;BME280;52164;52.212;-1.010;2023-02-19T04:03:24;101405.77;;;8.23;73.30
62946;BME280;52164;52.212;-1.010;2023-02-19T04:05:54;101418.49;;;8.20;73.46
62946;BME280;52164;52.212;-1.010;2023-02-19T04:08:21;101431.63;;;8.19;73.56
62946;BME280;52164;52.212;-1.010;2023-02-19T04:10:47;101437.30;;;8.18;73.51
62946;BME280;52164;52.212;-1.010;2023-02-19T04:13:22;101444.75;;;8.18;73.67
62946;BME280;52164;52.212;-1.010;2023-02-19T04:15:49;101440.31;;;8.18;73.64
62946;BME280;52164;52.212;-1.010;2023-02-19T04:18:17;101446.05;;;8.19;73.63
62946;BME280;52164;52.212;-1.010;2023-02-19T04:20:44;101445.88;;;8.20;73.74
62946;BME280;52164;52.212;-1.010;2023-02-19T04:23:10;101449.09;;;8.20;73.54
62946;BME280;52164;52.212;-1.010;2023-02-19T04:25:37;101453.90;;;8.21;73.27
62946;BME280;52164;52.212;-1.010;2023-02-19T04:28:03;101456.55;;;8.20;73.48
62946;BME280;52164;52.212;-1.010;2023-02-19T04:32:38;101459.21;;;8.20;73.60
62946;BME280;52164;52.212;-1.010;2023-02-19T04:33:34;101459.38;;;8.19;73.65
62946;BME280;52164;52.212;-1.010;2023-02-19T04:35:59;101459.56;;;8.19;73.68
62946;BME280;52164;52.212;-1.010;2023-02-19T04:38:24;101455.11;;;8.20;73.84
62946;BME280;52164;52.212;-1.010;2023-02-19T04:40:50;101455.30;;;8.20;73.78
62946;BME280;52164;52.212;-1.010;2023-02-19T04:43:15;101460.14;;;8.21;74.00
62946;BME280;52164;52.212;-1.010;2023-02-19T04:45:41;101465.83;;;8.22;74.35
62946;BME280;52164;52.212;-1.010;2023-02-19T04:48:06;101462.98;;;8.21;74.24
62946;BME280;52164;52.212;-1.010;2023-02-19T04:50:31;101463.02;;;8.23;74.14
62946;BME280;52164;52.212;-1.010;2023-02-19T04:53:01;101464.83;;;8.23;74.10
62946;BME280;52164;52.212;-1.010;2023-02-19T04:55:26;101464.45;;;8.23;74.00
62946;BME280;52164;52.212;-1.010;2023-02-19T04:57:51;101464.96;;;8.22;73.86
62946;BME280;52164;52.212;-1.010;2023-02-19T05:00:16;101469.89;;;8.20;73.73
62946;BME280;52164;52.212;-1.010;2023-02-19T05:02:42;101476.23;;;8.18;73.68
62946;BME280;52164;52.212;-1.010;2023-02-19T05:05:07;101486.19;;;8.18;73.70
62946;BME280;52164;52.212;-1.010;2023-02-19T05:07:32;101495.61;;;8.18;73.74
62946;BME280;52164;52.212;-1.010;2023-02-19T05:09:58;101501.46;;;8.17;73.85
62946;BME280;52164;52.212;-1.010;2023-02-19T05:12:24;101508.59;;;8.18;73.82
62946;BME280;52164;52.212;-1.010;2023-02-19T05:14:49;101511.83;;;8.19;73.92
62946;BME280;52164;52.212;-1.010;2023-02-19T05:17:15;101521.27;;;8.20;74.07
62946;BME280;52164;52.212;-1.010;2023-02-19T05:19:40;101527.90;;;8.22;73.79
62946;BME280;52164;52.212;-1.010;2023-02-19T05:22:05;101536.64;;;8.22;74.20
62946;BME280;52164;52.212;-1.010;2023-02-19T05:24:30;101538.59;;;8.22;73.93
62946;BME280;52164;52.212;-1.010;2023-02-19T05:26:56;101544.13;;;8.23;74.07
62946;BME280;52164;52.212;-1.010;2023-02-19T05:29:21;101555.16;;;8.24;74.10
62946;BME280;52164;52.212;-1.010;2023-02-19T05:31:46;101566.02;;;8.24;74.15
62946;BME280;52164;52.212;-1.010;2023-02-19T05:34:13;101564.92;;;8.23;74.05
62946;BME280;52164;52.212;-1.010;2023-02-19T05:36:38;101569.13;;;8.21;74.12
62946;BME280;52164;52.212;-1.010;2023-02-19T05:39:03;101564.10;;;8.19;73.78
62946;BME280;52164;52.212;-1.010;2023-02-19T05:41:30;101560.61;;;8.15;73.65
62946;BME280;52164;52.212;-1.010;2023-02-19T05:43:55;101562.08;;;8.10;73.57
62946;BME280;52164;52.212;-1.010;2023-02-19T05:46:22;101566.90;;;8.04;73.79
62946;BME280;52164;52.212;-1.010;2023-02-19T05:48:48;101572.96;;;7.98;73.77
62946;BME280;52164;52.212;-1.010;2023-02-19T05:51:16;101581.90;;;7.93;73.92
62946;BME280;52164;52.212;-1.010;2023-02-19T05:53:42;101585.34;;;7.89;73.66
62946;BME280;52164;52.212;-1.010;2023-02-19T05:56:30;101588.41;;;7.84;73.65
62946;BME280;52164;52.212;-1.010;2023-02-19T05:58:53;101590.40;;;7.80;73.41
62946;BME280;52164;52.212;-1.010;2023-02-19T06:01:19;101593.09;;;7.74;73.30
62946;BME280;52164;52.212;-1.010;2023-02-19T06:03:47;101599.12;;;7.68;73.23
62946;BME280;52164;52.212;-1.010;2023-02-19T06:06:12;101610.83;;;7.61;72.96
62946;BME280;52164;52.212;-1.010;2023-02-19T06:08:38;101608.35;;;7.55;72.99
62946;BME280;52164;52.212;-1.010;2023-02-19T06:11:03;101605.54;;;7.51;72.97
62946;BME280;52164;52.212;-1.010;2023-02-19T06:13:29;101606.98;;;7.46;72.83
62946;BME280;52164;52.212;-1.010;2023-02-19T06:15:54;101608.27;;;7.41;72.89
62946;BME280;52164;52.212;-1.010;2023-02-19T06:18:20;101605.15;;;7.37;72.91
62946;BME280;52164;52.212;-1.010;2023-02-19T06:20:45;101608.23;;;7.34;73.09
62946;BME280;52164;52.212;-1.010;2023-02-19T06:23:10;101605.48;;;7.31;73.09
62946;BME280;52164;52.212;-1.010;2023-02-19T06:25:36;101602.00;;;7.27;73.13
62946;BME280;52164;52.212;-1.010;2023-02-19T06:28:01;101602.27;;;7.24;72.74
62946;BME280;52164;52.212;-1.010;2023-02-19T06:30:26;101603.70;;;7.19;72.76
62946;BME280;52164;52.212;-1.010;2023-02-19T06:32:52;101602.66;;;7.15;72.69
62946;BME280;52164;52.212;-1.010;2023-02-19T06:35:18;101597.73;;;7.10;72.98
62946;BME280;52164;52.212;-1.010;2023-02-19T06:37:45;101597.61;;;7.06;72.70
62946;BME280;52164;52.212;-1.010;2023-02-19T06:40:10;101608.85;;;7.03;72.60
62946;BME280;52164;52.212;-1.010;2023-02-19T06:42:35;101613.05;;;7.00;72.78
62946;BME280;52164;52.212;-1.010;2023-02-19T06:45:01;101620.41;;;6.97;72.85
62946;BME280;52164;52.212;-1.010;2023-02-19T06:47:29;101625.12;;;6.95;72.98
62946;BME280;52164;52.212;-1.010;2023-02-19T06:49:54;101628.10;;;6.94;73.48
62946;BME280;52164;52.212;-1.010;2023-02-19T06:52:19;101627.16;;;6.92;73.25
62946;BME280;52164;52.212;-1.010;2023-02-19T06:54:47;101627.09;;;6.91;72.84
62946;BME280;52164;52.212;-1.010;2023-02-19T06:57:12;101631.09;;;6.88;72.91
62946;BME280;52164;52.212;-1.010;2023-02-19T06:59:37;101628.72;;;6.85;72.84
62946;BME280;52164;52.212;-1.010;2023-02-19T07:02:02;101636.30;;;6.84;72.80
62946;BME280;52164;52.212;-1.010;2023-02-19T07:04:30;101652.00;;;6.81;72.92
62946;BME280;52164;52.212;-1.010;2023-02-19T07:06:55;101659.45;;;6.81;72.69
62946;BME280;52164;52.212;-1.010;2023-02-19T07:09:21;101661.74;;;6.81;72.65
62946;BME280;52164;52.212;-1.010;2023-02-19T07:11:47;101660.79;;;6.79;72.63
62946;BME280;52164;52.212;-1.010;2023-02-19T07:14:13;101657.54;;;6.78;72.73
62946;BME280;52164;52.212;-1.010;2023-02-19T07:16:39;101658.94;;;6.77;72.79
62946;BME280;52164;52.212;-1.010;2023-02-19T07:19:04;101662.98;;;6.75;72.75
62946;BME280;52164;52.212;-1.010;2023-02-19T07:21:29;101670.75;;;6.75;72.85
62946;BME280;52164;52.212;-1.010;2023-02-19T07:23:55;101679.27;;;6.75;72.92
62946;BME280;52164;52.212;-1.010;2023-02-19T07:26:21;101673.61;;;6.75;73.08
62946;BME280;52164;52.212;-1.010;2023-02-19T07:28:48;101675.98;;;6.77;73.04
62946;BME280;52164;52.212;-1.010;2023-02-19T07:31:14;101682.72;;;6.77;73.20
62946;BME280;52164;52.212;-1.010;2023-02-19T07:33:41;101690.52;;;6.76;72.91
62946;BME280;52164;52.212;-1.010;2023-02-19T07:36:07;101695.80;;;6.76;72.89
62946;BME280;52164;52.212;-1.010;2023-02-19T07:38:32;101700.96;;;6.76;72.74
62946;BME280;52164;52.212;-1.010;2023-02-19T07:40:58;101710.70;;;6.75;72.85
62946;BME280;52164;52.212;-1.010;2023-02-19T07:43:24;101717.29;;;6.76;72.68
62946;BME280;52164;52.212;-1.010;2023-02-19T07:45:51;101728.11;;;6.76;72.65
62946;BME280;52164;52.212;-1.010;2023-02-19T07:48:16;101731.82;;;6.75;72.45
62946;BME280;52164;52.212;-1.010;2023-02-19T07:50:49;101742.88;;;6.77;72.47
62946;BME280;52164;52.212;-1.010;2023-02-19T07:53:14;101768.52;;;6.79;72.62
62946;BME280;52164;52.212;-1.010;2023-02-19T07:55:42;101782.26;;;6.81;72.49
62946;BME280;52164;52.212;-1.010;2023-02-19T07:58:07;101775.61;;;6.84;72.73
62946;BME280;52164;52.212;-1.010;2023-02-19T08:00:32;101765.08;;;6.88;72.70
62946;BME280;52164;52.212;-1.010;2023-02-19T08:02:57;101754.23;;;6.92;72.65
62946;BME280;52164;52.212;-1.010;2023-02-19T08:05:24;101747.54;;;6.94;72.82
62946;BME280;52164;52.212;-1.010;2023-02-19T08:07:49;101752.20;;;6.95;72.59
62946;BME280;52164;52.212;-1.010;2023-02-19T08:10:15;101748.85;;;6.96;72.31
62946;BME280;52164;52.212;-1.010;2023-02-19T08:13:00;101752.55;;;6.95;72.50
62946;BME280;52164;52.212;-1.010;2023-02-19T08:15:46;101756.98;;;6.94;72.62
62946;BME280;52164;52.212;-1.010;2023-02-19T08:18:11;101758.75;;;6.95;72.55
62946;BME280;52164;52.212;-1.010;2023-02-19T08:20:38;101752.39;;;6.95;72.25
62946;BME280;52164;52.212;-1.010;2023-02-19T08:23:04;101733.13;;;6.93;72.56
62946;BME280;52164;52.212;-1.010;2023-02-19T08:25:29;101715.29;;;6.90;72.48
62946;BME280;52164;52.212;-1.010;2023-02-19T08:27:54;101717.55;;;6.89;72.73
62946;BME280;52164;52.212;-1.010;2023-02-19T08:30:20;101723.61;;;6.90;72.72
62946;BME280;52164;52.212;-1.010;2023-02-19T08:32:46;101724.04;;;6.92;72.72
62946;BME280;52164;52.212;-1.010;2023-02-19T08:35:11;101727.11;;;6.94;73.07
62946;BME280;52164;52.212;-1.010;2023-02-19T08:37:36;101737.21;;;6.98;72.78
62946;BME280;52164;52.212;-1.010;2023-02-19T08:40:01;101739.52;;;7.03;73.03
62946;BME280;52164;52.212;-1.010;2023-02-19T08:42:27;101747.45;;;7.07;72.91
62946;BME280;52164;52.212;-1.010;2023-02-19T08:44:53;101757.94;;;7.12;73.03
62946;BME280;52164;52.212;-1.010;2023-02-19T08:47:18;101764.16;;;7.18;72.78
62946;BME280;52164;52.212;-1.010;2023-02-19T08:49:43;101763.30;;;7.23;72.62
62946;BME280;52164;52.212;-1.010;2023-02-19T08:52:08;101762.20;;;7.29;72.29
62946;BME280;52164;52.212;-1.010;2023-02-19T08:54:34;101761.38;;;7.36;72.32
62946;BME280;52164;52.212;-1.010;2023-02-19T08:57:00;101772.60;;;7.42;72.35
62946;BME280;52164;52.212;-1.010;2023-02-19T08:59:27;101781.59;;;7.50;72.09
62946;BME280;52164;52.212;-1.010;2023-02-19T09:01:52;101785.61;;;7.60;72.25
62946;BME280;52164;52.212;-1.010;2023-02-19T09:04:17;101777.67;;;7.67;72.15
62946;BME280;52164;52.212;-1.010;2023-02-19T09:06:43;101774.12;;;7.73;71.82
62946;BME280;52164;52.212;-1.010;2023-02-19T09:09:09;101774.06;;;7.76;71.72
62946;BME280;52164;52.212;-1.010;2023-02-19T09:11:34;101788.40;;;7.80;71.64
62946;BME280;52164;52.212;-1.010;2023-02-19T09:14:02;101808.36;;;7.82;71.51
62946;BME280;52164;52.212;-1.010;2023-02-19T09:16:30;101823.02;;;7.84;71.45
62946;BME280;52164;52.212;-1.010;2023-02-19T09:18:55;101828.05;;;7.86;71.38
62946;BME280;52164;52.212;-1.010;2023-02-19T09:21:20;101829.38;;;7.89;71.01
62946;BME280;52164;52.212;-1.010;2023-02-19T09:23:45;101824.66;;;7.91;70.65
62946;BME280;52164;52.212;-1.010;2023-02-19T09:26:11;101821.52;;;7.93;70.53
62946;BME280;52164;52.212;-1.010;2023-02-19T09:28:37;101812.38;;;7.96;70.69
62946;BME280;52164;52.212;-1.010;2023-02-19T09:31:06;101798.39;;;7.99;70.37
62946;BME280;52164;52.212;-1.010;2023-02-19T09:33:32;101790.25;;;8.00;70.14
62946;BME280;52164;52.212;-1.010;2023-02-19T09:35:58;101785.11;;;8.01;69.90
62946;BME280;52164;52.212;-1.010;2023-02-19T09:38:24;101785.69;;;8.02;69.75
62946;BME280;52164;52.212;-1.010;2023-02-19T09:40:50;101789.66;;;8.04;69.74
62946;BME280;52164;52.212;-1.010;2023-02-19T09:43:17;101793.37;;;8.08;69.78
62946;BME280;52164;52.212;-1.010;2023-02-19T09:45:44;101796.35;;;8.13;69.83
62946;BME280;52164;52.212;-1.010;2023-02-19T09:48:10;101793.27;;;8.17;69.65
62946;BME280;52164;52.212;-1.010;2023-02-19T09:50:37;101810.96;;;8.25;69.86
62946;BME280;52164;52.212;-1.010;2023-02-19T09:53:04;101811.17;;;8.33;69.59
62946;BME280;52164;52.212;-1.010;2023-02-19T09:55:36;101808.52;;;8.39;69.30
62946;BME280;52164;52.212;-1.010;2023-02-19T09:58:27;101822.67;;;8.48;69.49
62946;BME280;52164;52.212;-1.010;2023-02-19T10:00:54;101831.51;;;8.58;68.92
62946;BME280;52164;52.212;-1.010;2023-02-19T10:03:22;101840.08;;;8.64;68.77
62946;BME280;52164;52.212;-1.010;2023-02-19T10:05:50;101843.66;;;8.72;68.62
62946;BME280;52164;52.212;-1.010;2023-02-19T10:08:18;101845.98;;;8.78;68.65
62946;BME280;52164;52.212;-1.010;2023-02-19T10:10:44;101847.96;;;8.85;68.36
62946;BME280;52164;52.212;-1.010;2023-02-19T10:13:14;101852.42;;;8.91;68.34
62946;BME280;52164;52.212;-1.010;2023-02-19T10:15:45;101852.21;;;8.97;67.84
62946;BME280;52164;52.212;-1.010;2023-02-19T10:18:11;101863.70;;;9.07;67.64
62946;BME280;52164;52.212;-1.010;2023-02-19T10:20:36;101855.75;;;9.15;67.25
62946;BME280;52164;52.212;-1.010;2023-02-19T10:23:04;101851.02;;;9.19;66.92
62946;BME280;52164;52.212;-1.010;2023-02-19T10:25:31;101849.11;;;9.21;67.03
62946;BME280;52164;52.212;-1.010;2023-02-19T10:27:57;101848.95;;;9.22;66.91
62946;BME280;52164;52.212;-1.010;2023-02-19T10:30:25;101849.75;;;9.24;66.67
62946;BME280;52164;52.212;-1.010;2023-02-19T10:33:01;101849.33;;;9.29;66.79
62946;BME280;52164;52.212;-1.010;2023-02-19T10:35:26;101860.19;;;9.35;66.96
62946;BME280;52164;52.212;-1.010;2023-02-19T10:37:52;101864.48;;;9.42;66.78
62946;BME280;52164;52.212;-1.010;2023-02-19T10:40:18;101864.60;;;9.47;66.67
62946;BME280;52164;52.212;-1.010;2023-02-19T10:42:49;101864.44;;;9.48;66.32
62946;BME280;52164;52.212;-1.010;2023-02-19T10:45:16;101865.54;;;9.49;66.25
62946;BME280;52164;52.212;-1.010;2023-02-19T10:47:44;101858.98;;;9.50;66.26
62946;BME280;52164;52.212;-1.010;2023-02-19T10:50:19;101846.86;;;9.50;66.02
62946;BME280;52164;52.212;-1.010;2023-02-19T10:52:45;101853.27;;;9.50;66.08
62946;BME280;52164;52.212;-1.010;2023-02-19T10:55:23;101858.52;;;9.53;66.28
62946;BME280;52164;52.212;-1.010;2023-02-19T10:57:49;101854.72;;;9.58;66.08
62946;BME280;52164;52.212;-1.010;2023-02-19T11:00:18;101852.59;;;9.65;66.53
62946;BME280;52164;52.212;-1.010;2023-02-19T11:02:46;101849.16;;;9.78;66.38
62946;BME280;52164;52.212;-1.010;2023-02-19T11:07:45;101847.65;;;10.04;65.89
62946;BME280;52164;52.212;-1.010;2023-02-19T11:10:19;101843.51;;;10.18;65.61
62946;BME280;52164;52.212;-1.010;2023-02-19T11:12:46;101846.30;;;10.31;65.50
62946;BME280;52164;52.212;-1.010;2023-02-19T11:15:49;101841.77;;;10.43;65.13
62946;BME280;52164;52.212;-1.010;2023-02-19T11:20:23;101831.07;;;10.60;65.00
62946;BME280;52164;52.212;-1.010;2023-02-19T11:22:49;101836.84;;;10.71;64.61
62946;BME280;52164;52.212;-1.010;2023-02-19T11:27:58;101839.48;;;10.88;63.71
62946;BME280;52164;52.212;-1.010;2023-02-19T11:32:54;101834.81;;;10.95;63.89
62946;BME280;52164;52.212;-1.010;2023-02-19T11:35:20;101832.36;;;10.97;63.93
62946;BME280;52164;52.212;-1.010;2023-02-19T11:38:04;101835.66;;;11.01;63.15
62946;BME280;52164;52.212;-1.010;2023-02-19T11:40:36;101830.52;;;11.03;63.23
62946;BME280;52164;52.212;-1.010;2023-02-19T11:43:06;101833.07;;;11.06;63.34
62946;BME280;52164;52.212;-1.010;2023-02-19T11:45:38;101830.86;;;11.12;63.28
62946;BME280;52164;52.212;-1.010;2023-02-19T11:49:27;101827.92;;;11.18;63.33
62946;BME280;52164;52.212;-1.010;2023-02-19T11:50:58;101827.86;;;11.24;63.13
62946;BME280;52164;52.212;-1.010;2023-02-19T11:53:27;101831.45;;;11.26;63.26
62946;BME280;52164;52.212;-1.010;2023-02-19T11:59:26;101818.25;;;11.37;63.61
62946;BME280;52164;52.212;-1.010;2023-02-19T12:03:48;101811.45;;;11.57;63.34
62946;BME280;52164;52.212;-1.010;2023-02-19T12:06:22;101808.77;;;11.68;63.15
62946;BME280;52164;52.212;-1.010;2023-02-19T12:09:25;101802.82;;;11.77;62.97
62946;BME280;52164;52.212;-1.010;2023-02-19T12:11:48;101793.42;;;11.82;62.62
62946;BME280;52164;52.212;-1.010;2023-02-19T12:14:23;101804.84;;;11.91;62.49
62946;BME280;52164;52.212;-1.010;2023-02-19T12:16:58;101798.81;;;11.93;61.86
62946;BME280;52164;52.212;-1.010;2023-02-19T12:21:57;101788.39;;;12.01;62.03
62946;BME280;52164;52.212;-1.010;2023-02-19T12:24:36;101788.80;;;12.05;61.94
62946;BME280;52164;52.212;-1.010;2023-02-19T12:27:41;101787.16;;;12.04;61.77
62946;BME280;52164;52.212;-1.010;2023-02-19T12:31:14;101775.83;;;11.99;61.68
62946;BME280;52164;52.212;-1.010;2023-02-19T12:32:55;101766.88;;;11.99;61.35
62946;BME280;52164;52.212;-1.010;2023-02-19T12:40:36;101767.75;;;12.09;60.86
62946;BME280;52164;52.212;-1.010;2023-02-19T12:40:49;101773.96;;;12.06;61.17
62946;BME280;52164;52.212;-1.010;2023-02-19T12:43:08;101769.45;;;12.03;60.97
62946;BME280;52164;52.212;-1.010;2023-02-19T12:45:37;101765.06;;;11.96;61.26
62946;BME280;52164;52.212;-1.010;2023-02-19T12:48:07;101768.95;;;11.93;61.47
62946;BME280;52164;52.212;-1.010;2023-02-19T12:50:36;101769.50;;;11.84;60.79
62946;BME280;52164;52.212;-1.010;2023-02-19T12:53:05;101772.80;;;11.78;61.07
62946;BME280;52164;52.212;-1.010;2023-02-19T12:55:33;101768.64;;;11.75;61.72
62946;BME280;52164;52.212;-1.010;2023-02-19T12:58:01;101773.64;;;11.75;61.84
62946;BME280;52164;52.212;-1.010;2023-02-19T13:00:28;101769.33;;;11.73;61.16
62946;BME280;52164;52.212;-1.010;2023-02-19T13:03:03;101764.20;;;11.76;61.54
62946;BME280;52164;52.212;-1.010;2023-02-19T13:05:39;101754.19;;;11.78;61.19
62946;BME280;52164;52.212;-1.010;2023-02-19T13:08:16;101748.30;;;11.78;61.17
62946;BME280;52164;52.212;-1.010;2023-02-19T13:11:52;101741.67;;;11.77;61.07
62946;BME280;52164;52.212;-1.010;2023-02-19T13:13:37;101746.54;;;11.79;61.34
62946;BME280;52164;52.212;-1.010;2023-02-19T13:16:08;101748.70;;;11.81;61.02
62946;BME280;52164;52.212;-1.010;2023-02-19T13:18:42;101751.75;;;11.81;60.74
62946;BME280;52164;52.212;-1.010;2023-02-19T13:21:09;101736.55;;;11.82;60.56
62946;BME280;52164;52.212;-1.010;2023-02-19T13:23:35;101731.40;;;11.85;60.40
62946;BME280;52164;52.212;-1.010;2023-02-19T13:26:58;101733.71;;;11.84;60.48
62946;BME280;52164;52.212;-1.010;2023-02-19T13:29:11;101729.52;;;11.91;60.42
62946;BME280;52164;52.212;-1.010;2023-02-19T13:36:20;101713.51;;;11.94;60.04